Time;durP1;ratioP1;P1;durP2;ratioP2;P2;SDS_P1;SDS_P2;PMS_P1;PMS_P2;Temp;Humidity;BMP_temperature;BMP_pressure;BME280_temperature;BME280_humidity;BME280_pressure;Samples;Min_cycle;Max_cycle;Signal;HPM_P1;HPM_P2
2022/05/14 00:01:03;;;;;;;2.28;0.70;;;12.70;99.90;;;;;;10388160;28;20056;-62
2022/05/14 00:06:08;;;;;;;8.30;2.20;;;12.70;99.90;;;;;;10387058;28;20045;-60
2022/05/14 00:16:32;;;;;;;5.35;0.70;;;12.60;99.90;;;;;;10383977;28;20053;-61
2022/05/14 00:21:35;;;;;;;3.83;0.60;;;12.50;99.90;;;;;;10390052;28;20045;-60
2022/05/14 00:26:39;;;;;;;1.95;0.60;;;12.40;99.90;;;;;;10386755;28;20049;-60
2022/05/14 00:31:42;;;;;;;1.60;0.57;;;12.30;99.90;;;;;;10379211;28;20563;-61
2022/05/14 00:36:43;;;;;;;2.28;0.57;;;12.30;99.90;;;;;;10389478;28;20049;-61
2022/05/14 00:41:48;;;;;;;2.53;0.63;;;12.30;99.90;;;;;;10389055;28;20041;-60
2022/05/14 00:47:01;;;;;;;3.55;1.08;;;12.30;99.90;;;;;;10385469;28;20045;-59
2022/05/14 00:52:03;;;;;;;5.07;0.50;;;12.20;99.90;;;;;;10386928;28;20125;-60
2022/05/14 00:57:10;;;;;;;2.95;0.57;;;12.10;99.90;;;;;;10387239;28;20304;-58
2022/05/14 01:02:11;;;;;;;1.30;0.60;;;12.10;99.90;;;;;;10388997;28;20121;-57
2022/05/14 01:07:16;;;;;;;2.67;0.80;;;12.10;99.90;;;;;;10387535;28;20061;-58
2022/05/14 01:12:21;;;;;;;2.40;0.50;;;12.00;99.90;;;;;;10388566;28;20501;-58
2022/05/14 01:17:23;;;;;;;2.22;0.60;;;12.00;99.90;;;;;;10384268;28;20046;-57
2022/05/14 01:22:43;;;;;;;2.40;0.47;;;12.00;99.90;;;;;;10384437;28;20053;-58
2022/05/14 01:27:48;;;;;;;2.08;0.43;;;11.90;99.90;;;;;;10384801;28;20352;-58
2022/05/14 01:33:04;;;;;;;1.02;0.40;;;11.90;99.90;;;;;;10384493;28;20053;-59
2022/05/14 01:38:07;;;;;;;1.52;0.50;;;11.70;99.90;;;;;;10384274;28;20132;-59
2022/05/14 01:43:09;;;;;;;2.63;0.80;;;11.70;99.90;;;;;;10384919;28;20065;-58
2022/05/14 01:48:11;;;;;;;4.30;0.52;;;11.60;99.90;;;;;;10386927;28;20515;-57
2022/05/14 01:53:13;;;;;;;2.05;0.50;;;11.50;99.90;;;;;;10385102;28;20049;-58
2022/05/14 02:03:36;;;;;;;1.45;0.68;;;11.30;99.90;;;;;;10392244;28;20060;-59
2022/05/14 02:08:38;;;;;;;2.85;0.90;;;11.30;99.90;;;;;;10393822;28;20061;-59
2022/05/14 02:13:41;;;;;;;3.58;0.77;;;11.30;99.90;;;;;;10391129;28;20041;-58
2022/05/14 02:18:43;;;;;;;2.65;0.73;;;11.20;99.90;;;;;;10394038;28;20041;-58
2022/05/14 02:23:45;;;;;;;1.60;0.50;;;11.20;99.90;;;;;;10391668;28;20049;-57
2022/05/14 02:28:47;;;;;;;1.58;0.63;;;11.10;99.90;;;;;;10392297;28;20137;-58
2022/05/14 02:33:49;;;;;;;3.45;0.90;;;11.00;99.90;;;;;;10390205;28;20054;-57
2022/05/14 02:38:50;;;;;;;3.25;0.77;;;10.90;99.90;;;;;;10391117;28;20104;-58
2022/05/14 02:43:53;;;;;;;2.45;0.90;;;10.90;99.90;;;;;;10392452;28;20091;-58
2022/05/14 02:48:55;;;;;;;2.20;0.70;;;11.00;99.90;;;;;;10388907;28;20562;-58
2022/05/14 02:53:57;;;;;;;9.25;0.82;;;10.80;99.90;;;;;;10391304;28;20099;-58
2022/05/14 02:59:08;;;;;;;5.68;0.70;;;10.80;99.90;;;;;;10390836;28;20065;-57
2022/05/14 03:04:09;;;;;;;2.78;0.70;;;10.80;99.90;;;;;;10389639;28;20052;-57
2022/05/14 03:09:11;;;;;;;3.83;0.93;;;10.80;99.90;;;;;;10390808;28;20053;-59
2022/05/14 03:14:13;;;;;;;1.63;0.70;;;10.70;99.90;;;;;;10391577;28;20049;-58
2022/05/14 03:19:15;;;;;;;3.50;0.80;;;10.60;99.90;;;;;;10388770;28;20045;-57
2022/05/14 03:24:18;;;;;;;2.35;0.90;;;10.50;99.90;;;;;;10390783;28;20053;-58
2022/05/14 03:29:20;;;;;;;1.58;0.85;;;10.50;99.90;;;;;;10389190;28;20042;-58
2022/05/14 03:34:23;;;;;;;4.90;0.85;;;10.50;99.90;;;;;;10390953;28;20107;-58
2022/05/14 03:39:24;;;;;;;3.33;0.90;;;10.50;99.90;;;;;;10390075;28;20045;-60
2022/05/14 03:44:26;;;;;;;3.70;0.80;;;10.40;99.90;;;;;;10387634;28;20060;-60
2022/05/14 03:49:28;;;;;;;1.95;0.63;;;10.40;99.90;;;;;;10389160;28;20050;-59
2022/05/14 03:54:29;;;;;;;4.72;1.05;;;10.40;99.90;;;;;;10389131;28;20496;-60
2022/05/14 03:59:31;;;;;;;1.98;0.90;;;10.40;99.90;;;;;;10387263;28;20057;-60
2022/05/14 04:04:33;;;;;;;4.60;1.15;;;10.40;99.90;;;;;;10388594;28;20137;-60
2022/05/14 04:09:35;;;;;;;6.85;1.77;;;10.40;99.90;;;;;;10388095;28;20057;-60
2022/05/14 04:14:37;;;;;;;4.70;1.17;;;10.30;99.90;;;;;;10388281;28;20088;-60
2022/05/14 04:19:38;;;;;;;3.10;0.80;;;10.30;99.90;;;;;;10388591;28;23059;-59
2022/05/14 04:24:40;;;;;;;1.95;0.93;;;10.20;99.90;;;;;;10384061;28;20064;-61
2022/05/14 04:29:42;;;;;;;1.80;0.70;;;10.20;99.90;;;;;;10388969;28;20044;-61
2022/05/14 04:34:45;;;;;;;5.15;1.25;;;10.10;99.90;;;;;;10386874;28;20111;-60
2022/05/14 04:39:46;;;;;;;4.22;0.90;;;10.10;99.90;;;;;;10388268;28;20045;-61
2022/05/14 04:44:48;;;;;;;2.30;0.80;;;10.10;99.90;;;;;;10386380;28;20053;-59
2022/05/14 04:49:50;;;;;;;2.75;0.95;;;10.10;99.90;;;;;;10385646;28;20045;-60
2022/05/14 04:54:52;;;;;;;2.10;1.00;;;10.20;99.90;;;;;;10387686;28;20175;-60
2022/05/14 04:59:54;;;;;;;4.50;1.27;;;10.30;99.90;;;;;;10386017;28;20045;-59
2022/05/14 05:04:55;;;;;;;5.45;1.45;;;10.30;99.90;;;;;;10384554;28;20045;-60
2022/05/14 05:09:57;;;;;;;1.83;0.80;;;10.40;99.90;;;;;;10385098;28;20053;-59
2022/05/14 05:14:59;;;;;;;4.88;0.90;;;10.50;99.90;;;;;;10385878;28;20484;-60
2022/05/14 05:20:01;;;;;;;3.55;1.00;;;10.60;99.90;;;;;;10386168;28;20076;-59
2022/05/14 05:25:04;;;;;;;5.78;1.20;;;10.80;99.90;;;;;;10386330;28;20061;-59
2022/05/14 05:30:07;;;;;;;5.90;1.55;;;11.00;99.90;;;;;;10385127;28;20108;-60
2022/05/14 05:35:09;;;;;;;2.03;0.80;;;11.10;99.90;;;;;;10392829;28;20646;-61
2022/05/14 05:40:19;;;;;;;4.30;1.08;;;11.20;99.90;;;;;;10394375;28;20049;-60
2022/05/14 05:45:20;;;;;;;2.42;1.05;;;11.40;99.90;;;;;;10392232;28;20515;-59
2022/05/14 05:50:22;;;;;;;3.80;1.20;;;11.50;99.90;;;;;;10394717;28;20049;-59
2022/05/14 06:00:45;;;;;;;2.72;0.90;;;11.90;99.90;;;;;;10393128;28;20060;-60
2022/05/14 06:05:47;;;;;;;2.20;0.93;;;12.10;99.90;;;;;;10391296;28;20085;-61
2022/05/14 06:10:49;;;;;;;1.73;1.20;;;12.20;99.90;;;;;;10394563;28;20053;-60
2022/05/14 06:15:52;;;;;;;4.18;1.20;;;12.40;99.90;;;;;;10390527;28;20049;-60
2022/05/14 06:20:54;;;;;;;3.53;0.95;;;12.60;99.90;;;;;;10389732;28;20114;-59
2022/05/14 06:25:56;;;;;;;4.47;1.27;;;12.80;99.90;;;;;;10392426;28;20492;-60
2022/05/14 06:30:58;;;;;;;7.38;1.58;;;12.90;99.90;;;;;;10390272;28;20053;-60
2022/05/14 06:36:00;;;;;;;4.60;1.10;;;13.10;99.90;;;;;;10388338;28;20065;-61
2022/05/14 06:41:09;;;;;;;4.20;1.38;;;13.30;99.90;;;;;;10385584;28;20053;-59
2022/05/14 06:46:11;;;;;;;5.63;1.00;;;13.60;99.90;;;;;;10388811;28;20046;-59
2022/05/14 06:51:22;;;;;;;5.80;0.90;;;13.80;99.90;;;;;;10391156;28;20107;-60
2022/05/14 06:56:26;;;;;;;2.65;1.20;;;14.00;99.90;;;;;;10389977;28;20045;-59
2022/05/14 07:01:29;;;;;;;3.55;1.08;;;14.30;99.90;;;;;;10389325;28;20053;-60
2022/05/14 07:06:43;;;;;;;3.85;1.10;;;14.60;99.90;;;;;;10386677;28;20049;-60
2022/05/14 07:11:49;;;;;;;4.70;1.10;;;14.70;99.90;;;;;;10389648;28;20065;-60
2022/05/14 07:16:53;;;;;;;4.30;1.00;;;15.00;99.90;;;;;;10387918;28;20492;-60
2022/05/14 07:21:55;;;;;;;5.18;1.27;;;15.20;99.90;;;;;;10388571;28;20045;-61
2022/05/14 07:27:00;;;;;;;5.53;1.80;;;15.40;99.90;;;;;;10385776;28;20805;-59
2022/05/14 07:32:03;;;;;;;3.08;1.30;;;15.70;99.90;;;;;;10384991;28;20488;-60
2022/05/14 07:37:13;;;;;;;2.55;1.20;;;15.80;99.90;;;;;;10385753;28;20033;-60
2022/05/14 07:42:20;;;;;;;3.05;1.13;;;16.00;99.80;;;;;;10388726;28;20050;-59
2022/05/14 07:47:22;;;;;;;;;;;16.20;99.90;;;;;;10387159;28;20060;-60
2022/05/14 07:52:24;;;;;;;2.90;0.90;;;16.40;99.90;;;;;;10386230;28;19932;-59
2022/05/14 07:57:26;;;;;;;10.27;1.33;;;16.60;98.90;;;;;;10383509;28;20057;-60
2022/05/14 08:02:36;;;;;;;5.05;1.02;;;16.90;98.00;;;;;;10387806;28;20061;-60
2022/05/14 08:07:38;;;;;;;9.55;1.00;;;17.10;96.00;;;;;;10379751;28;20077;-59
2022/05/14 08:12:44;;;;;;;3.00;0.82;;;17.40;94.00;;;;;;10383503;28;20049;-59
2022/05/14 08:17:46;;;;;;;2.15;0.73;;;17.40;91.00;;;;;;10385955;28;20057;-60
2022/05/14 08:28:08;;;;;;;4.68;0.80;;;17.60;86.00;;;;;;10385089;28;20404;-60
2022/05/14 08:33:11;;;;;;;4.53;0.90;;;17.70;81.60;;;;;;10381283;28;20073;-59
2022/05/14 08:38:15;;;;;;;4.35;1.00;;;18.00;83.00;;;;;;10382156;28;20118;-59
2022/05/14 08:43:27;;;;;;;5.60;0.90;;;18.30;80.50;;;;;;10385508;28;20488;-58
2022/05/14 08:48:34;;;;;;;2.67;0.60;;;18.50;80.50;;;;;;10386951;28;20053;-59
2022/05/14 08:53:38;;;;;;;7.25;0.90;;;18.60;80.50;;;;;;10385258;28;20052;-59
2022/05/14 08:59:06;;;;;;;5.22;0.80;;;18.90;78.10;;;;;;10384934;28;20061;-60
2022/05/14 09:04:10;;;;;;;5.30;0.60;;;18.80;75.40;;;;;;10382456;28;20103;-65
2022/05/14 09:09:12;;;;;;;7.00;0.95;;;19.10;78.00;;;;;;10384766;28;20049;-65
2022/05/14 09:14:27;;;;;;;4.00;0.95;;;19.20;77.70;;;;;;10425515;23;20046;-91
2022/05/14 09:19:55;;;;;;;2.83;0.68;;;19.50;77.50;;;;;;10336851;28;20046;-91
2022/05/14 09:24:57;;;;;;;1.88;0.70;;;19.80;75.50;;;;;;10346165;28;20046;-89
2022/05/14 09:30:07;;;;;;;6.07;0.70;;;20.00;74.80;;;;;;10363126;28;20073;-91
2022/05/14 09:35:25;;;;;;;1.83;0.70;;;19.80;72.60;;;;;;10358227;28;20065;-90
2022/05/14 09:40:29;;;;;;;3.63;0.70;;;20.10;74.80;;;;;;10300534;28;20102;-90
2022/05/14 09:45:35;;;;;;;5.05;0.60;;;20.40;71.20;;;;;;10297056;28;20063;-90
2022/05/14 09:50:40;;;;;;;3.63;0.80;;;20.50;71.30;;;;;;10275609;28;20053;-91
2022/05/14 09:55:45;;;;;;;2.93;0.50;;;20.50;71.00;;;;;;10323916;28;20054;-90
2022/05/14 10:01:01;;;;;;;4.97;0.75;;;20.80;69.10;;;;;;10331958;28;20100;-91
2022/05/14 10:06:19;;;;;;;1.30;0.32;;;21.00;68.50;;;;;;10342969;28;20104;-89
2022/05/14 10:11:40;;;;;;;1.02;0.30;;;20.70;66.20;;;;;;10362483;28;20054;-89
2022/05/14 10:16:58;;;;;;;3.33;0.40;;;20.90;64.20;;;;;;10311163;28;20054;-86
2022/05/14 10:22:19;;;;;;;3.63;0.30;;;20.80;65.00;;;;;;10326373;28;20078;-90
2022/05/14 10:27:37;;;;;;;3.17;0.50;;;21.10;64.00;;;;;;10294351;28;20047;-87
2022/05/14 10:32:41;;;;;;;0.47;0.30;;;21.30;63.20;;;;;;10330952;28;20058;-87
2022/05/14 10:37:43;;;;;;;2.65;0.30;;;21.30;62.50;;;;;;10338733;28;20522;-89
2022/05/14 10:43:31;;;;;;;3.72;0.30;;;21.70;62.00;;;;;;10317271;28;20058;-89
2022/05/14 10:48:38;;;;;;;0.93;0.65;;;22.20;61.60;;;;;;10280596;28;20054;-89
2022/05/14 10:53:42;;;;;;;4.53;0.35;;;22.20;59.90;;;;;;10314249;28;22489;-88
2022/05/14 10:59:12;;;;;;;1.67;0.32;;;22.40;62.00;;;;;;10300480;28;20061;-92
2022/05/14 11:04:34;;;;;;;1.95;0.43;;;22.70;58.80;;;;;;10030958;28;20706;-92
2022/05/14 11:09:46;;;;;;;1.45;0.43;;;22.70;58.30;;;;;;10294429;28;20072;-91
2022/05/14 11:14:58;;;;;;;3.37;0.37;;;22.70;59.10;;;;;;10298786;28;20050;-89
2022/05/14 11:20:06;;;;;;;5.13;0.40;;;22.90;58.40;;;;;;10300251;28;20046;-89
2022/05/14 11:25:24;;;;;;;2.30;0.30;;;23.30;56.80;;;;;;10278699;28;20047;-90
2022/05/14 11:30:31;;;;;;;2.88;0.60;;;23.10;57.90;;;;;;10284355;28;20078;-89
2022/05/14 11:35:42;;;;;;;3.10;0.57;;;23.20;57.70;;;;;;10229010;28;20099;-93
2022/05/14 11:41:17;;;;;;;3.28;0.30;;;23.40;59.30;;;;;;10101790;28;20036;-93
2022/05/14 11:46:48;;;;;;;0.80;0.30;;;23.30;57.10;;;;;;10145578;28;20046;-87
2022/05/14 11:51:58;;;;;;;2.20;0.50;;;23.40;57.90;;;;;;10275755;28;20094;-87
2022/05/14 11:57:08;;;;;;;4.15;0.50;;;23.80;57.40;;;;;;10258906;28;20047;-87
2022/05/14 12:02:19;;;;;;;3.30;0.35;;;23.60;55.50;;;;;;10254121;28;20060;-87
2022/05/14 12:07:54;;;;;;;3.75;0.30;;;23.50;55.80;;;;;;10303206;28;20047;-87
2022/05/14 12:14:15;;;;;;;7.10;0.40;;;23.60;54.70;;;;;;10028182;28;20054;-91
2022/05/14 12:19:29;;;;;;;1.95;0.20;;;23.50;55.80;;;;;;9894884;23;20512;-61
2022/05/14 12:24:38;;;;;;;5.03;0.40;;;24.10;58.40;;;;;;10259504;28;20516;-61
2022/05/14 12:29:40;;;;;;;4.00;0.30;;;24.00;54.10;;;;;;10253148;28;20043;-60
2022/05/14 12:34:42;;;;;;;8.35;0.63;;;24.30;55.50;;;;;;10249615;28;20047;-59
2022/05/14 12:39:44;;;;;;;2.88;0.25;;;24.60;55.50;;;;;;10252961;28;20427;-61
2022/05/14 12:44:47;;;;;;;2.80;0.30;;;24.80;52.40;;;;;;10252849;28;20549;-61
2022/05/14 12:49:49;;;;;;;2.25;0.38;;;25.00;53.30;;;;;;10267705;28;20498;-60
2022/05/14 12:55:00;;;;;;;1.63;0.35;;;24.90;53.10;;;;;;10251926;28;20188;-61
2022/05/14 13:00:03;;;;;;;2.40;0.35;;;24.80;51.10;;;;;;10258768;28;20103;-60
2022/05/14 13:05:21;;;;;;;1.80;0.20;;;25.30;54.30;;;;;;10256532;28;20034;-59
2022/05/14 13:10:26;;;;;;;3.20;0.60;;;25.50;53.00;;;;;;10251156;28;20054;-60
2022/05/14 13:15:37;;;;;;;5.22;0.70;;;26.00;52.00;;;;;;10253598;28;20047;-60
2022/05/14 13:20:39;;;;;;;2.05;0.30;;;26.00;50.50;;;;;;10269328;28;20046;-59
2022/05/14 13:25:41;;;;;;;1.58;0.30;;;25.30;52.10;;;;;;10292139;28;20058;-59
2022/05/14 13:30:46;;;;;;;3.75;0.30;;;25.50;49.80;;;;;;10274225;28;20386;-60
2022/05/14 13:41:22;;;;;;;1.45;0.30;;;25.70;49.00;;;;;;10285984;28;20051;-59
2022/05/14 13:46:28;;;;;;;3.60;0.32;;;25.40;50.50;;;;;;10292807;28;20059;-59
2022/05/14 13:51:34;;;;;;;5.68;0.30;;;25.80;50.40;;;;;;10290489;28;20058;-60
2022/05/14 13:56:37;;;;;;;1.58;0.30;;;25.70;50.40;;;;;;10281759;28;20412;-61
2022/05/14 14:01:54;;;;;;;4.88;0.30;;;26.10;49.20;;;;;;10306995;28;20458;-59
2022/05/14 14:07:00;;;;;;;3.33;0.30;;;26.50;47.90;;;;;;10297044;28;20129;-59
2022/05/14 14:12:02;;;;;;;1.10;0.20;;;26.50;47.90;;;;;;10301846;28;20042;-60
2022/05/14 14:17:04;;;;;;;2.55;0.50;;;26.20;47.90;;;;;;10291779;28;20053;-60
2022/05/14 14:22:09;;;;;;;3.00;0.20;;;27.00;45.80;;;;;;10295911;28;20059;-58
2022/05/14 14:27:10;;;;;;;0.55;0.30;;;27.00;46.30;;;;;;10298379;28;20278;-59
2022/05/14 14:32:12;;;;;;;2.35;0.32;;;26.70;46.30;;;;;;10301463;28;20462;-59
2022/05/14 14:37:17;;;;;;;1.35;0.40;;;27.10;46.90;;;;;;10295762;28;20134;-60
2022/05/14 14:42:19;;;;;;;0.65;0.30;;;27.20;44.30;;;;;;10297831;28;20461;-60
2022/05/14 14:47:22;;;;;;;3.47;0.40;;;27.60;43.80;;;;;;10296388;28;20532;-59
2022/05/14 14:52:25;;;;;;;0.40;0.10;;;28.00;45.20;;;;;;10303207;28;20046;-59
2022/05/14 14:57:28;;;;;;;2.80;0.20;;;28.00;41.50;;;;;;10298966;28;20069;-58
2022/05/14 15:02:34;;;;;;;2.35;0.40;;;28.50;43.20;;;;;;10298238;28;20050;-59
2022/05/14 15:07:36;;;;;;;2.03;0.20;;;28.50;41.60;;;;;;10292372;28;20058;-59
2022/05/14 15:12:39;;;;;;;1.15;0.25;;;27.90;43.20;;;;;;10300249;28;20050;-58
2022/05/14 15:17:41;;;;;;;1.75;0.20;;;27.50;43.40;;;;;;10296813;28;20132;-58
2022/05/14 15:22:43;;;;;;;0.98;0.25;;;28.30;41.50;;;;;;10291350;28;20432;-58
2022/05/14 15:27:44;;;;;;;2.65;0.20;;;28.70;41.40;;;;;;10296319;28;20050;-59
2022/05/14 15:32:46;;;;;;;0.82;0.10;;;28.80;39.80;;;;;;10296493;28;20050;-58
2022/05/14 15:37:48;;;;;;;1.55;0.20;;;29.10;39.50;;;;;;10290881;28;20058;-59
2022/05/14 15:42:53;;;;;;;3.25;0.20;;;28.80;37.70;;;;;;10296768;28;20054;-58
2022/05/14 15:47:58;;;;;;;0.73;0.20;;;29.30;38.60;;;;;;10291775;28;20063;-58
2022/05/14 15:53:12;;;;;;;1.08;0.50;;;29.30;37.40;;;;;;10288626;28;20047;-60
2022/05/14 15:58:14;;;;;;;0.75;0.20;;;29.30;36.20;;;;;;10297727;28;20086;-59
2022/05/14 16:03:15;;;;;;;5.13;0.28;;;28.90;36.80;;;;;;10295655;28;20046;-60
2022/05/14 16:08:17;;;;;;;1.60;0.55;;;29.30;36.60;;;;;;10298185;28;20551;-58
2022/05/14 16:18:43;;;;;;;1.88;0.20;;;29.00;37.00;;;;;;10290901;28;20050;-59
2022/05/14 16:23:45;;;;;;;2.13;0.20;;;29.00;39.20;;;;;;10291522;28;20066;-59
2022/05/14 16:28:49;;;;;;;1.48;0.20;;;28.90;37.60;;;;;;10294024;28;20042;-59
2022/05/14 16:33:52;;;;;;;2.63;0.70;;;28.80;37.90;;;;;;10292709;28;20047;-60
2022/05/14 16:38:55;;;;;;;1.75;0.20;;;28.70;37.90;;;;;;10299356;28;20054;-58
2022/05/14 16:43:57;;;;;;;3.33;0.30;;;28.50;38.20;;;;;;10296307;28;20046;-59
2022/05/14 16:48:59;;;;;;;2.08;0.30;;;28.20;37.50;;;;;;10302361;28;20050;-59
2022/05/14 16:54:04;;;;;;;5.15;0.30;;;28.20;37.20;;;;;;10293211;28;20101;-59
2022/05/14 16:59:06;;;;;;;0.82;0.30;;;28.10;37.00;;;;;;10292562;28;20061;-59
2022/05/14 17:04:09;;;;;;;1.13;0.20;;;28.20;36.00;;;;;;10296031;28;20497;-59
2022/05/14 17:09:11;;;;;;;1.73;0.40;;;28.40;36.30;;;;;;10294349;28;20133;-58
2022/05/14 17:14:15;;;;;;;1.75;0.30;;;28.20;35.10;;;;;;10292509;28;20105;-59
2022/05/14 17:19:18;;;;;;;2.17;0.40;;;28.20;35.90;;;;;;10293913;28;20058;-58
2022/05/14 17:24:23;;;;;;;0.75;0.15;;;28.10;35.70;;;;;;10293580;28;20042;-57
2022/05/14 17:29:25;;;;;;;2.38;0.35;;;27.80;35.60;;;;;;10294215;28;20050;-58
2022/05/14 17:34:26;;;;;;;2.90;0.30;;;27.50;36.30;;;;;;10303206;28;20049;-58
2022/05/14 17:39:41;;;;;;;4.63;0.47;;;27.30;36.00;;;;;;10297856;28;20050;-61
2022/05/14 17:44:44;;;;;;;4.57;0.90;;;27.30;36.50;;;;;;10295810;28;20046;-58
2022/05/14 17:49:47;;;;;;;1.90;0.90;;;27.20;36.80;;;;;;10297349;28;20042;-63
2022/05/14 17:54:48;;;;;;;1.40;0.68;;;27.10;37.40;;;;;;10299722;28;20054;-59
2022/05/14 17:59:50;;;;;;;2.85;0.35;;;26.90;38.50;;;;;;10302272;28;20050;-60
2022/05/14 18:04:52;;;;;;;5.20;0.80;;;26.30;39.00;;;;;;10301027;28;20588;-60
2022/05/14 18:09:53;;;;;;;3.28;0.80;;;25.80;40.50;;;;;;10300191;28;20050;-59
2022/05/14 18:14:55;;;;;;;1.40;0.50;;;25.30;40.90;;;;;;10297628;28;20070;-60
2022/05/14 18:19:59;;;;;;;2.17;0.30;;;24.90;41.70;;;;;;10280342;28;20046;-59
2022/05/14 18:25:02;;;;;;;2.45;0.40;;;24.60;42.90;;;;;;10299188;28;20489;-59
2022/05/14 18:30:32;;;;;;;3.80;0.50;;;24.20;44.40;;;;;;10293138;28;20046;-60
2022/05/14 18:35:40;;;;;;;2.00;0.35;;;23.90;44.50;;;;;;10293940;28;20113;-59
2022/05/14 18:40:43;;;;;;;5.13;1.08;;;23.50;45.40;;;;;;10300465;28;20054;-60
2022/05/14 18:45:46;;;;;;;2.70;0.85;;;23.10;46.40;;;;;;10301251;28;20054;-59
2022/05/14 18:50:47;;;;;;;1.73;0.80;;;22.80;47.60;;;;;;10296749;28;20046;-59
2022/05/14 18:55:50;;;;;;;2.35;0.60;;;22.50;48.70;;;;;;10301930;28;20109;-59
2022/05/14 19:00:51;;;;;;;3.25;0.82;;;22.10;48.40;;;;;;10298728;28;20077;-60
2022/05/14 19:11:13;;;;;;;2.30;0.73;;;21.40;50.20;;;;;;10295186;28;20493;-59
2022/05/14 19:16:15;;;;;;;6.13;1.40;;;21.10;51.30;;;;;;10295942;28;20058;-61
2022/05/14 19:21:17;;;;;;;10.43;3.72;;;20.80;52.30;;;;;;10303567;28;20101;-60
2022/05/14 19:26:18;;;;;;;1.90;1.45;;;20.60;52.10;;;;;;10296813;28;20086;-59
2022/05/14 19:31:20;;;;;;;0.88;0.30;;;20.30;53.20;;;;;;10294362;28;20548;-60
2022/05/14 19:36:26;;;;;;;0.82;0.28;;;20.00;54.50;;;;;;10297710;28;20062;-60
2022/05/14 19:41:36;;;;;;;3.80;1.00;;;19.70;55.20;;;;;;10294758;28;20112;-59
2022/05/14 19:46:39;;;;;;;3.83;0.93;;;19.50;54.70;;;;;;10299928;28;20527;-59
2022/05/14 19:51:41;;;;;;;1.33;0.60;;;19.40;55.20;;;;;;10297109;28;20050;-58
2022/05/14 19:56:43;;;;;;;3.15;0.95;;;19.30;58.30;;;;;;10297867;28;20128;-59
2022/05/14 20:01:47;;;;;;;3.30;0.73;;;19.10;59.70;;;;;;10294536;28;20555;-57
2022/05/14 20:06:48;;;;;;;2.45;0.90;;;19.00;59.60;;;;;;10294588;28;20057;-59
2022/05/14 20:11:50;;;;;;;2.70;0.98;;;18.80;60.20;;;;;;10296432;28;20058;-59
2022/05/14 20:22:12;;;;;;;1.73;0.70;;;18.40;59.20;;;;;;10296497;28;20497;-58
2022/05/14 20:27:14;;;;;;;7.00;1.25;;;18.00;57.80;;;;;;10295769;28;20488;-57
2022/05/14 20:32:16;;;;;;;4.00;0.70;;;17.90;57.50;;;;;;10297501;28;20109;-57
2022/05/14 20:37:18;;;;;;;3.10;1.00;;;17.80;58.80;;;;;;10295048;28;20109;-58
2022/05/14 20:42:20;;;;;;;2.35;0.90;;;17.60;58.60;;;;;;10302542;28;20066;-56
2022/05/14 20:47:22;;;;;;;1.70;0.45;;;17.60;58.80;;;;;;10296142;28;20059;-57
2022/05/14 20:52:24;;;;;;;1.00;0.40;;;17.50;59.60;;;;;;10296012;28;20068;-57
2022/05/14 20:57:25;;;;;;;4.47;0.60;;;17.50;62.10;;;;;;10293886;28;20061;-57
2022/05/14 21:02:27;;;;;;;4.75;1.35;;;17.30;63.30;;;;;;10292775;28;20389;-58
2022/05/14 21:07:29;;;;;;;2.67;0.60;;;17.30;65.20;;;;;;10294515;28;20080;-57
2022/05/14 21:12:32;;;;;;;2.67;0.93;;;17.20;66.80;;;;;;10281442;28;20060;-60
2022/05/14 21:17:35;;;;;;;3.40;1.25;;;17.20;68.70;;;;;;10290632;28;20085;-58
2022/05/14 21:22:37;;;;;;;9.20;1.25;;;17.10;71.00;;;;;;10293053;28;20116;-59
2022/05/14 21:27:39;;;;;;;6.72;1.52;;;17.10;72.50;;;;;;10297091;28;20172;-58
2022/05/14 21:32:41;;;;;;;1.27;1.10;;;17.10;73.80;;;;;;10291960;28;20166;-57
2022/05/14 21:37:43;;;;;;;2.55;1.35;;;17.10;74.80;;;;;;10295269;28;20517;-57
2022/05/14 21:42:49;;;;;;;5.75;1.52;;;17.10;75.50;;;;;;10292628;28;20571;-58
2022/05/14 21:47:51;;;;;;;4.15;1.70;;;17.10;76.00;;;;;;10294952;28;20647;-58
2022/05/14 21:52:57;;;;;;;4.45;1.65;;;17.00;76.90;;;;;;10297504;28;20050;-59
2022/05/14 21:58:00;;;;;;;5.70;1.70;;;17.00;77.70;;;;;;10298074;28;20123;-58
2022/05/14 22:03:06;;;;;;;2.05;1.30;;;17.00;78.30;;;;;;10295913;28;20050;-57
2022/05/14 22:08:09;;;;;;;8.17;1.80;;;16.90;78.90;;;;;;10292968;28;20070;-59
2022/05/14 22:13:12;;;;;;;4.07;1.48;;;16.90;79.40;;;;;;10293803;28;20042;-56
2022/05/14 22:18:14;;;;;;;5.90;1.20;;;16.90;80.10;;;;;;10297635;28;20105;-57
2022/05/14 22:23:16;;;;;;;3.55;1.85;;;16.80;80.70;;;;;;10297913;28;20120;-57
2022/05/14 22:28:18;;;;;;;3.60;1.20;;;16.80;81.10;;;;;;10295587;28;20378;-58
2022/05/14 22:33:19;;;;;;;8.30;1.35;;;16.70;81.80;;;;;;10290720;28;20042;-56
2022/05/14 22:38:21;;;;;;;4.63;1.38;;;16.70;82.30;;;;;;10298160;28;20065;-57
2022/05/14 22:43:29;;;;;;;2.78;1.30;;;16.60;83.30;;;;;;10297717;28;20055;-57
2022/05/14 22:48:32;;;;;;;6.97;1.98;;;16.60;83.10;;;;;;10301654;28;20081;-58
2022/05/14 22:53:34;;;;;;;5.05;1.50;;;16.50;83.80;;;;;;10302016;28;20050;-58
2022/05/14 22:58:36;;;;;;;5.35;1.45;;;16.30;84.60;;;;;;10297539;28;20058;-57
2022/05/14 23:03:39;;;;;;;4.78;1.73;;;16.30;85.20;;;;;;10302106;28;20400;-57
2022/05/14 23:08:41;;;;;;;7.47;1.40;;;16.30;86.30;;;;;;10295584;28;20761;-57
2022/05/14 23:13:46;;;;;;;3.58;1.38;;;16.20;87.60;;;;;;10299163;28;20056;-57
2022/05/14 23:18:47;;;;;;;2.63;1.38;;;16.10;89.20;;;;;;10292387;28;20113;-56
2022/05/14 23:23:50;;;;;;;2.45;1.80;;;16.00;90.10;;;;;;10301084;28;20489;-56
2022/05/14 23:28:52;;;;;;;8.13;1.20;;;15.90;90.50;;;;;;10293006;28;20050;-57
2022/05/14 23:33:54;;;;;;;6.88;1.40;;;15.80;90.60;;;;;;10301309;28;20046;-56
2022/05/14 23:38:57;;;;;;;6.80;1.55;;;15.70;90.60;;;;;;10294960;28;20109;-56
2022/05/14 23:43:59;;;;;;;3.10;1.58;;;15.60;91.50;;;;;;10297957;28;20042;-57
2022/05/14 23:49:01;;;;;;;6.63;2.00;;;15.60;93.20;;;;;;10289201;28;20101;-57
2022/05/14 23:54:03;;;;;;;5.55;2.10;;;15.50;93.90;;;;;;10298981;28;20046;-57
